sensor_id;sensor_type;location;lat;lon;timestamp;P1;durP1;ratioP1;P2;durP2;ratioP2
5042;SDS011;2540;50.928;6.856;2022-09-12T00:01:23;21.70;;;11.80;;
5042;SDS011;2540;50.928;6.856;2022-09-12T00:03:59;23.90;;;12.27;;
5042;SDS011;2540;50.928;6.856;2022-09-12T00:06:26;27.70;;;13.10;;
5042;SDS011;2540;50.928;6.856;2022-09-12T00:08:55;27.90;;;11.50;;
5042;SDS011;2540;50.928;6.856;2022-09-12T00:11:21;20.93;;;11.70;;
5042;SDS011;2540;50.928;6.856;2022-09-12T00:13:46;22.87;;;10.87;;
5042;SDS011;2540;50.928;6.856;2022-09-12T00:16:19;19.90;;;11.03;;
5042;SDS011;2540;50.928;6.856;2022-09-12T00:18:45;25.40;;;11.93;;
5042;SDS011;2540;50.928;6.856;2022-09-12T00:21:11;21.77;;;11.50;;
5042;SDS011;2540;50.928;6.856;2022-09-12T00:23:36;22.90;;;11.63;;
5042;SDS011;2540;50.928;6.856;2022-09-12T00:26:03;28.43;;;11.83;;
5042;SDS011;2540;50.928;6.856;2022-09-12T00:28:28;22.30;;;11.00;;
5042;SDS011;2540;50.928;6.856;2022-09-12T00:30:54;25.77;;;12.13;;
5042;SDS011;2540;50.928;6.856;2022-09-12T00:33:19;25.63;;;11.63;;
5042;SDS011;2540;50.928;6.856;2022-09-12T00:35:45;26.87;;;13.00;;
5042;SDS011;2540;50.928;6.856;2022-09-12T00:38:11;22.97;;;11.47;;
5042;SDS011;2540;50.928;6.856;2022-09-12T00:40:36;23.67;;;11.50;;
5042;SDS011;2540;50.928;6.856;2022-09-12T00:43:01;25.70;;;11.30;;
5042;SDS011;2540;50.928;6.856;2022-09-12T00:45:27;26.10;;;13.80;;
5042;SDS011;2540;50.928;6.856;2022-09-12T00:47:53;25.23;;;12.60;;
5042;SDS011;2540;50.928;6.856;2022-09-12T00:50:19;23.93;;;12.27;;
5042;SDS011;2540;50.928;6.856;2022-09-12T00:55:14;23.63;;;11.07;;
5042;SDS011;2540;50.928;6.856;2022-09-12T00:57:47;21.60;;;11.93;;
5042;SDS011;2540;50.928;6.856;2022-09-12T01:00:14;21.17;;;10.77;;
5042;SDS011;2540;50.928;6.856;2022-09-12T01:02:44;20.67;;;10.47;;
5042;SDS011;2540;50.928;6.856;2022-09-12T01:05:10;16.33;;;10.10;;
5042;SDS011;2540;50.928;6.856;2022-09-12T01:07:36;19.30;;;10.70;;
5042;SDS011;2540;50.928;6.856;2022-09-12T01:10:03;19.13;;;9.20;;
5042;SDS011;2540;50.928;6.856;2022-09-12T01:12:28;17.00;;;10.07;;
5042;SDS011;2540;50.928;6.856;2022-09-12T01:14:55;22.47;;;10.70;;
5042;SDS011;2540;50.928;6.856;2022-09-12T01:17:20;21.57;;;11.03;;
5042;SDS011;2540;50.928;6.856;2022-09-12T01:20:15;20.73;;;10.30;;
5042;SDS011;2540;50.928;6.856;2022-09-12T01:33:15;27.10;;;12.27;;
5042;SDS011;2540;50.928;6.856;2022-09-12T01:38:24;26.57;;;13.27;;
5042;SDS011;2540;50.928;6.856;2022-09-12T01:41:05;24.60;;;11.03;;
5042;SDS011;2540;50.928;6.856;2022-09-12T01:46:20;28.37;;;13.67;;
5042;SDS011;2540;50.928;6.856;2022-09-12T01:54:16;24.33;;;12.20;;
5042;SDS011;2540;50.928;6.856;2022-09-12T01:56:44;23.43;;;11.47;;
5042;SDS011;2540;50.928;6.856;2022-09-12T01:59:15;27.83;;;13.57;;
5042;SDS011;2540;50.928;6.856;2022-09-12T02:01:50;24.20;;;12.70;;
5042;SDS011;2540;50.928;6.856;2022-09-12T02:04:19;24.10;;;12.50;;
5042;SDS011;2540;50.928;6.856;2022-09-12T02:09:19;25.60;;;13.30;;
5042;SDS011;2540;50.928;6.856;2022-09-12T02:11:47;23.60;;;12.37;;
5042;SDS011;2540;50.928;6.856;2022-09-12T02:14:20;24.47;;;11.70;;
5042;SDS011;2540;50.928;6.856;2022-09-12T02:16:49;36.33;;;13.50;;
5042;SDS011;2540;50.928;6.856;2022-09-12T02:19:16;29.13;;;12.40;;
5042;SDS011;2540;50.928;6.856;2022-09-12T02:21:44;24.60;;;12.23;;
5042;SDS011;2540;50.928;6.856;2022-09-12T02:24:11;31.50;;;13.67;;
5042;SDS011;2540;50.928;6.856;2022-09-12T02:26:40;25.87;;;11.77;;
5042;SDS011;2540;50.928;6.856;2022-09-12T02:29:06;29.37;;;13.23;;
5042;SDS011;2540;50.928;6.856;2022-09-12T02:39:00;26.17;;;13.47;;
5042;SDS011;2540;50.928;6.856;2022-09-12T02:41:25;25.50;;;12.70;;
5042;SDS011;2540;50.928;6.856;2022-09-12T02:43:50;26.60;;;13.80;;
5042;SDS011;2540;50.928;6.856;2022-09-12T02:46:21;25.37;;;12.37;;
5042;SDS011;2540;50.928;6.856;2022-09-12T02:48:47;27.80;;;11.60;;
5042;SDS011;2540;50.928;6.856;2022-09-12T02:51:12;23.93;;;12.83;;
5042;SDS011;2540;50.928;6.856;2022-09-12T02:53:37;25.40;;;12.10;;
5042;SDS011;2540;50.928;6.856;2022-09-12T02:56:04;28.70;;;12.73;;
5042;SDS011;2540;50.928;6.856;2022-09-12T02:58:31;30.60;;;12.37;;
5042;SDS011;2540;50.928;6.856;2022-09-12T03:01:43;29.43;;;12.97;;
5042;SDS011;2540;50.928;6.856;2022-09-12T03:03:54;25.53;;;12.57;;
5042;SDS011;2540;50.928;6.856;2022-09-12T03:09:35;32.47;;;13.10;;
5042;SDS011;2540;50.928;6.856;2022-09-12T03:19:31;24.77;;;12.00;;
5042;SDS011;2540;50.928;6.856;2022-09-12T03:22:01;32.47;;;13.70;;
5042;SDS011;2540;50.928;6.856;2022-09-12T03:29:27;24.98;;;11.82;;
5042;SDS011;2540;50.928;6.856;2022-09-12T03:31:54;26.20;;;12.17;;
5042;SDS011;2540;50.928;6.856;2022-09-12T03:34:20;23.53;;;11.73;;
5042;SDS011;2540;50.928;6.856;2022-09-12T03:36:46;28.53;;;11.90;;
5042;SDS011;2540;50.928;6.856;2022-09-12T03:39:12;29.00;;;11.90;;
5042;SDS011;2540;50.928;6.856;2022-09-12T03:41:37;25.47;;;11.80;;
5042;SDS011;2540;50.928;6.856;2022-09-12T03:44:02;21.80;;;10.83;;
5042;SDS011;2540;50.928;6.856;2022-09-12T03:46:27;28.20;;;12.70;;
5042;SDS011;2540;50.928;6.856;2022-09-12T03:48:53;26.60;;;11.70;;
5042;SDS011;2540;50.928;6.856;2022-09-12T03:51:18;28.67;;;14.90;;
5042;SDS011;2540;50.928;6.856;2022-09-12T03:53:43;27.93;;;12.23;;
5042;SDS011;2540;50.928;6.856;2022-09-12T03:56:09;30.07;;;12.43;;
5042;SDS011;2540;50.928;6.856;2022-09-12T03:58:34;23.10;;;11.67;;
5042;SDS011;2540;50.928;6.856;2022-09-12T04:01:00;23.03;;;11.43;;
5042;SDS011;2540;50.928;6.856;2022-09-12T04:03:30;25.70;;;12.83;;
5042;SDS011;2540;50.928;6.856;2022-09-12T04:05:56;22.87;;;11.90;;
5042;SDS011;2540;50.928;6.856;2022-09-12T04:08:21;22.40;;;11.20;;
5042;SDS011;2540;50.928;6.856;2022-09-12T04:10:46;22.70;;;11.83;;
5042;SDS011;2540;50.928;6.856;2022-09-12T04:13:11;21.57;;;11.27;;
5042;SDS011;2540;50.928;6.856;2022-09-12T04:15:37;25.17;;;10.50;;
5042;SDS011;2540;50.928;6.856;2022-09-12T04:18:02;28.10;;;12.10;;
5042;SDS011;2540;50.928;6.856;2022-09-12T04:20:27;25.40;;;11.03;;
5042;SDS011;2540;50.928;6.856;2022-09-12T04:22:52;22.50;;;10.70;;
5042;SDS011;2540;50.928;6.856;2022-09-12T04:25:17;22.73;;;12.50;;
5042;SDS011;2540;50.928;6.856;2022-09-12T04:27:43;22.83;;;10.23;;
5042;SDS011;2540;50.928;6.856;2022-09-12T04:30:08;19.10;;;10.67;;
5042;SDS011;2540;50.928;6.856;2022-09-12T04:32:33;22.77;;;11.03;;
5042;SDS011;2540;50.928;6.856;2022-09-12T04:34:58;24.40;;;11.30;;
5042;SDS011;2540;50.928;6.856;2022-09-12T04:37:24;27.47;;;11.80;;
5042;SDS011;2540;50.928;6.856;2022-09-12T04:39:49;23.80;;;11.00;;
5042;SDS011;2540;50.928;6.856;2022-09-12T04:42:14;20.10;;;10.70;;
5042;SDS011;2540;50.928;6.856;2022-09-12T04:44:40;19.17;;;11.60;;
5042;SDS011;2540;50.928;6.856;2022-09-12T04:47:05;27.67;;;12.20;;
5042;SDS011;2540;50.928;6.856;2022-09-12T04:49:30;27.73;;;11.60;;
5042;SDS011;2540;50.928;6.856;2022-09-12T04:51:55;26.70;;;12.30;;
5042;SDS011;2540;50.928;6.856;2022-09-12T04:54:20;27.93;;;11.77;;
5042;SDS011;2540;50.928;6.856;2022-09-12T04:56:46;27.77;;;11.63;;
5042;SDS011;2540;50.928;6.856;2022-09-12T04:59:13;28.77;;;11.70;;
5042;SDS011;2540;50.928;6.856;2022-09-12T05:01:39;21.30;;;10.27;;
5042;SDS011;2540;50.928;6.856;2022-09-12T05:04:05;23.67;;;11.57;;
5042;SDS011;2540;50.928;6.856;2022-09-12T05:06:34;23.50;;;11.00;;
5042;SDS011;2540;50.928;6.856;2022-09-12T05:08:59;23.03;;;11.83;;
5042;SDS011;2540;50.928;6.856;2022-09-12T05:11:29;25.67;;;11.00;;
5042;SDS011;2540;50.928;6.856;2022-09-12T05:13:55;21.30;;;11.40;;
5042;SDS011;2540;50.928;6.856;2022-09-12T05:16:21;28.80;;;11.20;;
5042;SDS011;2540;50.928;6.856;2022-09-12T05:18:46;21.57;;;10.80;;
5042;SDS011;2540;50.928;6.856;2022-09-12T05:21:12;25.00;;;10.80;;
5042;SDS011;2540;50.928;6.856;2022-09-12T05:23:37;21.83;;;11.07;;
5042;SDS011;2540;50.928;6.856;2022-09-12T05:26:03;20.40;;;10.50;;
5042;SDS011;2540;50.928;6.856;2022-09-12T05:28:30;27.23;;;10.83;;
5042;SDS011;2540;50.928;6.856;2022-09-12T05:31:03;22.90;;;11.03;;
5042;SDS011;2540;50.928;6.856;2022-09-12T05:33:28;21.63;;;10.60;;
5042;SDS011;2540;50.928;6.856;2022-09-12T05:35:54;24.80;;;10.50;;
5042;SDS011;2540;50.928;6.856;2022-09-12T05:38:19;24.40;;;11.30;;
5042;SDS011;2540;50.928;6.856;2022-09-12T05:40:44;19.70;;;10.40;;
5042;SDS011;2540;50.928;6.856;2022-09-12T05:43:09;25.00;;;11.60;;
5042;SDS011;2540;50.928;6.856;2022-09-12T05:45:36;20.77;;;10.00;;
5042;SDS011;2540;50.928;6.856;2022-09-12T05:48:01;18.33;;;10.23;;
5042;SDS011;2540;50.928;6.856;2022-09-12T05:50:27;29.43;;;9.03;;
5042;SDS011;2540;50.928;6.856;2022-09-12T05:52:52;19.63;;;10.60;;
5042;SDS011;2540;50.928;6.856;2022-09-12T05:55:18;25.30;;;10.13;;
5042;SDS011;2540;50.928;6.856;2022-09-12T05:57:44;23.00;;;10.70;;
5042;SDS011;2540;50.928;6.856;2022-09-12T06:00:12;20.67;;;10.17;;
5042;SDS011;2540;50.928;6.856;2022-09-12T06:02:38;20.23;;;10.60;;
5042;SDS011;2540;50.928;6.856;2022-09-12T06:05:04;21.50;;;11.10;;
5042;SDS011;2540;50.928;6.856;2022-09-12T06:07:29;21.57;;;10.13;;
5042;SDS011;2540;50.928;6.856;2022-09-12T06:09:55;18.73;;;10.37;;
5042;SDS011;2540;50.928;6.856;2022-09-12T06:12:23;23.27;;;11.30;;
5042;SDS011;2540;50.928;6.856;2022-09-12T06:14:48;21.30;;;11.20;;
5042;SDS011;2540;50.928;6.856;2022-09-12T06:17:14;24.20;;;10.07;;
5042;SDS011;2540;50.928;6.856;2022-09-12T06:19:39;22.43;;;9.90;;
5042;SDS011;2540;50.928;6.856;2022-09-12T06:22:04;18.67;;;10.80;;
5042;SDS011;2540;50.928;6.856;2022-09-12T06:24:29;25.23;;;10.47;;
5042;SDS011;2540;50.928;6.856;2022-09-12T06:26:54;23.50;;;10.37;;
5042;SDS011;2540;50.928;6.856;2022-09-12T06:29:21;19.90;;;10.80;;
5042;SDS011;2540;50.928;6.856;2022-09-12T06:31:46;20.70;;;9.90;;
5042;SDS011;2540;50.928;6.856;2022-09-12T06:34:13;17.10;;;9.50;;
5042;SDS011;2540;50.928;6.856;2022-09-12T06:36:39;21.60;;;10.33;;
5042;SDS011;2540;50.928;6.856;2022-09-12T06:39:11;18.43;;;10.00;;
5042;SDS011;2540;50.928;6.856;2022-09-12T06:41:37;24.80;;;10.77;;
5042;SDS011;2540;50.928;6.856;2022-09-12T06:44:02;19.30;;;10.40;;
5042;SDS011;2540;50.928;6.856;2022-09-12T06:46:28;22.97;;;11.83;;
5042;SDS011;2540;50.928;6.856;2022-09-12T06:48:55;19.17;;;11.00;;
5042;SDS011;2540;50.928;6.856;2022-09-12T06:51:20;22.50;;;11.87;;
5042;SDS011;2540;50.928;6.856;2022-09-12T06:53:46;23.50;;;12.70;;
5042;SDS011;2540;50.928;6.856;2022-09-12T06:56:12;22.30;;;10.60;;
5042;SDS011;2540;50.928;6.856;2022-09-12T06:58:38;21.30;;;10.63;;
5042;SDS011;2540;50.928;6.856;2022-09-12T07:01:05;20.13;;;10.83;;
5042;SDS011;2540;50.928;6.856;2022-09-12T07:03:30;19.17;;;10.20;;
5042;SDS011;2540;50.928;6.856;2022-09-12T07:05:56;19.20;;;10.60;;
5042;SDS011;2540;50.928;6.856;2022-09-12T07:08:21;21.10;;;10.03;;
5042;SDS011;2540;50.928;6.856;2022-09-12T07:10:47;20.53;;;10.63;;
5042;SDS011;2540;50.928;6.856;2022-09-12T07:13:12;16.80;;;10.50;;
5042;SDS011;2540;50.928;6.856;2022-09-12T07:15:38;19.73;;;10.03;;
5042;SDS011;2540;50.928;6.856;2022-09-12T07:18:03;21.37;;;10.60;;
5042;SDS011;2540;50.928;6.856;2022-09-12T07:20:28;21.50;;;11.07;;
5042;SDS011;2540;50.928;6.856;2022-09-12T07:22:53;18.63;;;9.97;;
5042;SDS011;2540;50.928;6.856;2022-09-12T07:25:18;19.73;;;10.03;;
5042;SDS011;2540;50.928;6.856;2022-09-12T07:27:44;23.73;;;11.23;;
5042;SDS011;2540;50.928;6.856;2022-09-12T07:30:09;22.83;;;11.00;;
5042;SDS011;2540;50.928;6.856;2022-09-12T07:32:34;23.23;;;11.13;;
5042;SDS011;2540;50.928;6.856;2022-09-12T07:34:59;24.07;;;11.40;;
5042;SDS011;2540;50.928;6.856;2022-09-12T07:37:25;22.60;;;11.60;;
5042;SDS011;2540;50.928;6.856;2022-09-12T07:39:50;23.60;;;10.77;;
5042;SDS011;2540;50.928;6.856;2022-09-12T07:42:15;22.23;;;10.70;;
5042;SDS011;2540;50.928;6.856;2022-09-12T07:44:40;21.70;;;11.30;;
5042;SDS011;2540;50.928;6.856;2022-09-12T07:47:06;24.30;;;11.67;;
5042;SDS011;2540;50.928;6.856;2022-09-12T07:49:31;22.00;;;10.60;;
5042;SDS011;2540;50.928;6.856;2022-09-12T07:51:56;18.50;;;9.80;;
5042;SDS011;2540;50.928;6.856;2022-09-12T07:54:21;19.50;;;10.40;;
5042;SDS011;2540;50.928;6.856;2022-09-12T07:56:46;21.07;;;10.47;;
5042;SDS011;2540;50.928;6.856;2022-09-12T07:59:12;21.60;;;11.00;;
5042;SDS011;2540;50.928;6.856;2022-09-12T08:01:37;19.97;;;11.50;;
5042;SDS011;2540;50.928;6.856;2022-09-12T08:04:04;21.27;;;11.50;;
5042;SDS011;2540;50.928;6.856;2022-09-12T08:06:29;19.27;;;10.83;;
5042;SDS011;2540;50.928;6.856;2022-09-12T08:08:56;19.60;;;9.60;;
5042;SDS011;2540;50.928;6.856;2022-09-12T08:11:22;21.07;;;11.77;;
5042;SDS011;2540;50.928;6.856;2022-09-12T08:13:47;22.30;;;11.70;;
5042;SDS011;2540;50.928;6.856;2022-09-12T08:16:14;29.53;;;11.37;;
5042;SDS011;2540;50.928;6.856;2022-09-12T08:18:40;21.70;;;11.60;;
5042;SDS011;2540;50.928;6.856;2022-09-12T08:21:06;22.00;;;11.67;;
5042;SDS011;2540;50.928;6.856;2022-09-12T08:23:32;23.60;;;11.20;;
5042;SDS011;2540;50.928;6.856;2022-09-12T08:26:01;22.53;;;11.97;;
5042;SDS011;2540;50.928;6.856;2022-09-12T08:28:27;21.87;;;10.77;;
5042;SDS011;2540;50.928;6.856;2022-09-12T08:30:53;23.43;;;11.40;;
5042;SDS011;2540;50.928;6.856;2022-09-12T08:33:18;20.87;;;10.23;;
5042;SDS011;2540;50.928;6.856;2022-09-12T08:35:44;17.00;;;9.83;;
5042;SDS011;2540;50.928;6.856;2022-09-12T08:38:09;23.50;;;11.30;;
5042;SDS011;2540;50.928;6.856;2022-09-12T08:40:52;20.83;;;9.80;;
5042;SDS011;2540;50.928;6.856;2022-09-12T08:45:50;21.73;;;10.37;;
5042;SDS011;2540;50.928;6.856;2022-09-12T08:48:18;20.67;;;11.03;;
5042;SDS011;2540;50.928;6.856;2022-09-12T08:50:43;24.90;;;11.60;;
5042;SDS011;2540;50.928;6.856;2022-09-12T08:53:12;21.53;;;10.13;;
5042;SDS011;2540;50.928;6.856;2022-09-12T08:55:51;20.17;;;11.27;;
5042;SDS011;2540;50.928;6.856;2022-09-12T08:58:24;16.93;;;9.53;;
5042;SDS011;2540;50.928;6.856;2022-09-12T09:01:01;20.23;;;10.57;;
5042;SDS011;2540;50.928;6.856;2022-09-12T09:03:49;18.67;;;10.63;;
5042;SDS011;2540;50.928;6.856;2022-09-12T09:08:52;23.77;;;10.90;;
5042;SDS011;2540;50.928;6.856;2022-09-12T09:14:13;16.03;;;8.87;;
5042;SDS011;2540;50.928;6.856;2022-09-12T09:17:01;14.80;;;9.00;;
5042;SDS011;2540;50.928;6.856;2022-09-12T09:19:30;21.80;;;11.03;;
5042;SDS011;2540;50.928;6.856;2022-09-12T09:24:24;14.35;;;9.02;;
5042;SDS011;2540;50.928;6.856;2022-09-12T09:29:19;20.83;;;9.37;;
5042;SDS011;2540;50.928;6.856;2022-09-12T09:31:48;15.23;;;8.00;;
5042;SDS011;2540;50.928;6.856;2022-09-12T09:34:23;15.37;;;8.03;;
5042;SDS011;2540;50.928;6.856;2022-09-12T09:36:54;16.67;;;9.53;;
5042;SDS011;2540;50.928;6.856;2022-09-12T09:39:25;15.63;;;8.27;;
5042;SDS011;2540;50.928;6.856;2022-09-12T09:42:08;18.77;;;9.53;;
5042;SDS011;2540;50.928;6.856;2022-09-12T09:44:35;12.10;;;7.57;;
5042;SDS011;2540;50.928;6.856;2022-09-12T09:47:00;13.80;;;7.00;;
5042;SDS011;2540;50.928;6.856;2022-09-12T09:49:26;11.27;;;7.00;;
5042;SDS011;2540;50.928;6.856;2022-09-12T09:51:52;8.90;;;6.27;;
5042;SDS011;2540;50.928;6.856;2022-09-12T09:56:43;11.03;;;7.23;;
5042;SDS011;2540;50.928;6.856;2022-09-12T10:01:42;13.80;;;7.33;;
5042;SDS011;2540;50.928;6.856;2022-09-12T10:04:08;14.17;;;8.00;;
5042;SDS011;2540;50.928;6.856;2022-09-12T10:06:41;14.63;;;6.93;;
5042;SDS011;2540;50.928;6.856;2022-09-12T10:09:19;14.07;;;6.87;;
5042;SDS011;2540;50.928;6.856;2022-09-12T10:11:45;9.77;;;6.63;;
5042;SDS011;2540;50.928;6.856;2022-09-12T10:16:51;9.40;;;6.00;;
5042;SDS011;2540;50.928;6.856;2022-09-12T10:19:21;11.70;;;6.63;;
5042;SDS011;2540;50.928;6.856;2022-09-12T10:21:51;9.10;;;5.80;;
5042;SDS011;2540;50.928;6.856;2022-09-12T10:24:28;10.37;;;6.07;;
5042;SDS011;2540;50.928;6.856;2022-09-12T10:26:55;9.07;;;6.07;;
5042;SDS011;2540;50.928;6.856;2022-09-12T10:29:22;7.43;;;5.23;;
5042;SDS011;2540;50.928;6.856;2022-09-12T10:31:50;6.50;;;5.30;;
5042;SDS011;2540;50.928;6.856;2022-09-12T10:34:19;6.70;;;5.17;;
5042;SDS011;2540;50.928;6.856;2022-09-12T10:36:45;10.70;;;5.57;;
5042;SDS011;2540;50.928;6.856;2022-09-12T10:39:14;8.07;;;5.17;;
5042;SDS011;2540;50.928;6.856;2022-09-12T10:41:41;9.17;;;4.30;;
5042;SDS011;2540;50.928;6.856;2022-09-12T10:44:07;7.47;;;4.67;;
5042;SDS011;2540;50.928;6.856;2022-09-12T10:46:33;5.47;;;3.77;;
5042;SDS011;2540;50.928;6.856;2022-09-12T10:51:43;5.60;;;4.07;;
5042;SDS011;2540;50.928;6.856;2022-09-12T10:54:09;7.37;;;4.00;;
5042;SDS011;2540;50.928;6.856;2022-09-12T10:56:35;5.10;;;3.73;;
5042;SDS011;2540;50.928;6.856;2022-09-12T11:01:52;12.60;;;5.07;;
5042;SDS011;2540;50.928;6.856;2022-09-12T11:09:38;4.70;;;4.20;;
5042;SDS011;2540;50.928;6.856;2022-09-12T11:12:13;6.60;;;4.50;;
5042;SDS011;2540;50.928;6.856;2022-09-12T11:14:45;6.07;;;4.20;;
5042;SDS011;2540;50.928;6.856;2022-09-12T11:17:19;4.93;;;3.27;;
5042;SDS011;2540;50.928;6.856;2022-09-12T11:29:46;4.17;;;3.03;;
5042;SDS011;2540;50.928;6.856;2022-09-12T11:32:30;5.17;;;3.73;;
5042;SDS011;2540;50.928;6.856;2022-09-12T11:42:44;4.37;;;3.23;;
5042;SDS011;2540;50.928;6.856;2022-09-12T11:45:18;4.50;;;3.67;;
5042;SDS011;2540;50.928;6.856;2022-09-12T11:47:47;5.23;;;3.40;;
5042;SDS011;2540;50.928;6.856;2022-09-12T11:50:31;3.30;;;2.50;;
5042;SDS011;2540;50.928;6.856;2022-09-12T11:53:18;4.93;;;3.20;;
5042;SDS011;2540;50.928;6.856;2022-09-12T11:56:26;4.83;;;3.13;;
5042;SDS011;2540;50.928;6.856;2022-09-12T11:58:33;4.87;;;2.80;;
5042;SDS011;2540;50.928;6.856;2022-09-12T12:01:10;3.57;;;3.00;;
5042;SDS011;2540;50.928;6.856;2022-09-12T12:03:39;3.10;;;2.80;;
5042;SDS011;2540;50.928;6.856;2022-09-12T12:06:06;4.50;;;2.80;;
5042;SDS011;2540;50.928;6.856;2022-09-12T12:08:38;6.40;;;3.13;;
5042;SDS011;2540;50.928;6.856;2022-09-12T12:11:04;4.10;;;3.13;;
5042;SDS011;2540;50.928;6.856;2022-09-12T12:13:31;5.30;;;3.27;;
5042;SDS011;2540;50.928;6.856;2022-09-12T12:16:06;6.00;;;3.10;;
5042;SDS011;2540;50.928;6.856;2022-09-12T12:18:36;4.77;;;3.20;;
5042;SDS011;2540;50.928;6.856;2022-09-12T12:29:46;3.80;;;2.67;;
5042;SDS011;2540;50.928;6.856;2022-09-12T12:36:55;3.00;;;2.70;;
5042;SDS011;2540;50.928;6.856;2022-09-12T12:41:55;3.53;;;3.23;;
5042;SDS011;2540;50.928;6.856;2022-09-12T12:47:13;2.90;;;2.60;;
5042;SDS011;2540;50.928;6.856;2022-09-12T12:49:41;3.20;;;2.90;;
5042;SDS011;2540;50.928;6.856;2022-09-12T12:52:15;2.97;;;2.70;;
5042;SDS011;2540;50.928;6.856;2022-09-12T12:57:16;5.13;;;2.83;;
5042;SDS011;2540;50.928;6.856;2022-09-12T13:02:17;2.87;;;2.63;;
5042;SDS011;2540;50.928;6.856;2022-09-12T13:04:43;4.00;;;2.60;;
5042;SDS011;2540;50.928;6.856;2022-09-12T13:07:12;5.70;;;3.10;;
5042;SDS011;2540;50.928;6.856;2022-09-12T13:09:46;3.70;;;3.17;;
5042;SDS011;2540;50.928;6.856;2022-09-12T13:12:18;2.80;;;2.50;;
5042;SDS011;2540;50.928;6.856;2022-09-12T13:17:21;2.87;;;2.67;;
5042;SDS011;2540;50.928;6.856;2022-09-12T13:19:48;4.80;;;2.50;;
5042;SDS011;2540;50.928;6.856;2022-09-12T13:22:14;2.37;;;2.10;;
5042;SDS011;2540;50.928;6.856;2022-09-12T13:24:42;2.83;;;2.53;;
5042;SDS011;2540;50.928;6.856;2022-09-12T13:27:21;5.50;;;2.60;;
5042;SDS011;2540;50.928;6.856;2022-09-12T13:29:47;2.60;;;2.40;;
5042;SDS011;2540;50.928;6.856;2022-09-12T13:32:13;2.97;;;2.53;;
5042;SDS011;2540;50.928;6.856;2022-09-12T13:39:55;3.00;;;2.43;;
5042;SDS011;2540;50.928;6.856;2022-09-12T13:47:18;3.00;;;2.53;;
5042;SDS011;2540;50.928;6.856;2022-09-12T13:49:47;3.20;;;2.90;;
5042;SDS011;2540;50.928;6.856;2022-09-12T13:52:15;4.77;;;2.80;;
5042;SDS011;2540;50.928;6.856;2022-09-12T13:54:41;3.80;;;2.77;;
5042;SDS011;2540;50.928;6.856;2022-09-12T13:57:16;3.70;;;2.70;;
5042;SDS011;2540;50.928;6.856;2022-09-12T13:59:50;7.97;;;3.23;;
5042;SDS011;2540;50.928;6.856;2022-09-12T14:02:19;3.93;;;3.53;;
5042;SDS011;2540;50.928;6.856;2022-09-12T14:04:48;3.97;;;3.13;;
5042;SDS011;2540;50.928;6.856;2022-09-12T14:10:26;3.20;;;2.83;;
5042;SDS011;2540;50.928;6.856;2022-09-12T14:12:52;6.40;;;3.10;;
5042;SDS011;2540;50.928;6.856;2022-09-12T14:15:20;7.90;;;2.60;;
5042;SDS011;2540;50.928;6.856;2022-09-12T14:17:50;5.93;;;3.17;;
5042;SDS011;2540;50.928;6.856;2022-09-12T14:20:16;5.97;;;2.53;;
5042;SDS011;2540;50.928;6.856;2022-09-12T14:22:42;8.00;;;3.43;;
5042;SDS011;2540;50.928;6.856;2022-09-12T14:28:05;3.23;;;2.83;;
5042;SDS011;2540;50.928;6.856;2022-09-12T14:30:32;4.67;;;3.17;;
5042;SDS011;2540;50.928;6.856;2022-09-12T14:33:05;5.47;;;3.43;;
5042;SDS011;2540;50.928;6.856;2022-09-12T14:35:39;3.60;;;2.80;;
5042;SDS011;2540;50.928;6.856;2022-09-12T14:38:06;3.90;;;3.30;;
5042;SDS011;2540;50.928;6.856;2022-09-12T14:40:32;3.83;;;2.93;;
5042;SDS011;2540;50.928;6.856;2022-09-12T14:45:58;3.30;;;2.77;;
5042;SDS011;2540;50.928;6.856;2022-09-12T14:48:24;3.30;;;2.93;;
5042;SDS011;2540;50.928;6.856;2022-09-12T14:50:49;5.50;;;2.60;;
5042;SDS011;2540;50.928;6.856;2022-09-12T14:55:45;4.65;;;3.10;;
5042;SDS011;2540;50.928;6.856;2022-09-12T14:58:14;7.90;;;3.40;;
5042;SDS011;2540;50.928;6.856;2022-09-12T15:03:30;4.00;;;3.00;;
5042;SDS011;2540;50.928;6.856;2022-09-12T15:05:56;5.60;;;3.80;;
5042;SDS011;2540;50.928;6.856;2022-09-12T15:08:22;3.63;;;3.10;;
5042;SDS011;2540;50.928;6.856;2022-09-12T15:10:47;3.90;;;3.03;;
5042;SDS011;2540;50.928;6.856;2022-09-12T15:13:14;6.07;;;3.20;;
5042;SDS011;2540;50.928;6.856;2022-09-12T15:15:41;5.53;;;4.30;;
5042;SDS011;2540;50.928;6.856;2022-09-12T15:18:06;6.13;;;3.43;;
5042;SDS011;2540;50.928;6.856;2022-09-12T15:20:33;23.00;;;14.73;;
5042;SDS011;2540;50.928;6.856;2022-09-12T15:22:59;7.87;;;4.57;;
5042;SDS011;2540;50.928;6.856;2022-09-12T15:25:24;5.47;;;4.10;;
5042;SDS011;2540;50.928;6.856;2022-09-12T15:27:50;6.17;;;3.60;;
5042;SDS011;2540;50.928;6.856;2022-09-12T15:30:16;4.70;;;3.63;;
5042;SDS011;2540;50.928;6.856;2022-09-12T15:32:42;4.30;;;3.40;;
5042;SDS011;2540;50.928;6.856;2022-09-12T15:35:15;5.30;;;3.03;;
5042;SDS011;2540;50.928;6.856;2022-09-12T15:37:42;4.00;;;3.13;;
5042;SDS011;2540;50.928;6.856;2022-09-12T15:40:08;7.00;;;3.37;;
5042;SDS011;2540;50.928;6.856;2022-09-12T15:42:33;5.17;;;3.10;;
5042;SDS011;2540;50.928;6.856;2022-09-12T15:44:58;8.63;;;3.27;;
5042;SDS011;2540;50.928;6.856;2022-09-12T15:47:24;3.20;;;2.90;;
5042;SDS011;2540;50.928;6.856;2022-09-12T15:49:49;5.30;;;3.60;;
5042;SDS011;2540;50.928;6.856;2022-09-12T15:52:15;6.33;;;3.10;;
5042;SDS011;2540;50.928;6.856;2022-09-12T15:54:40;4.43;;;3.00;;
5042;SDS011;2540;50.928;6.856;2022-09-12T15:57:06;3.40;;;3.07;;
5042;SDS011;2540;50.928;6.856;2022-09-12T15:59:31;6.00;;;4.80;;
5042;SDS011;2540;50.928;6.856;2022-09-12T16:01:56;7.77;;;6.00;;
5042;SDS011;2540;50.928;6.856;2022-09-12T16:04:26;22.43;;;6.80;;
5042;SDS011;2540;50.928;6.856;2022-09-12T16:06:52;12.33;;;3.00;;
5042;SDS011;2540;50.928;6.856;2022-09-12T16:09:17;10.00;;;5.63;;
5042;SDS011;2540;50.928;6.856;2022-09-12T16:11:43;6.17;;;3.00;;
5042;SDS011;2540;50.928;6.856;2022-09-12T16:14:09;3.87;;;3.00;;
5042;SDS011;2540;50.928;6.856;2022-09-12T16:16:34;4.30;;;2.70;;
5042;SDS011;2540;50.928;6.856;2022-09-12T16:18:59;4.10;;;2.53;;
5042;SDS011;2540;50.928;6.856;2022-09-12T16:21:25;6.13;;;2.70;;
5042;SDS011;2540;50.928;6.856;2022-09-12T16:23:50;6.93;;;2.53;;
5042;SDS011;2540;50.928;6.856;2022-09-12T16:26:16;3.13;;;2.80;;
5042;SDS011;2540;50.928;6.856;2022-09-12T16:28:41;3.50;;;2.53;;
5042;SDS011;2540;50.928;6.856;2022-09-12T16:31:07;3.37;;;2.67;;
5042;SDS011;2540;50.928;6.856;2022-09-12T16:33:33;4.30;;;3.20;;
5042;SDS011;2540;50.928;6.856;2022-09-12T16:36:05;5.60;;;2.97;;
5042;SDS011;2540;50.928;6.856;2022-09-12T16:38:30;3.37;;;2.60;;
5042;SDS011;2540;50.928;6.856;2022-09-12T16:41:02;4.00;;;2.87;;
5042;SDS011;2540;50.928;6.856;2022-09-12T16:43:28;4.03;;;3.03;;
5042;SDS011;2540;50.928;6.856;2022-09-12T16:46:26;4.20;;;2.80;;
5042;SDS011;2540;50.928;6.856;2022-09-12T16:48:46;5.67;;;2.77;;
5042;SDS011;2540;50.928;6.856;2022-09-12T16:51:13;4.70;;;3.00;;
5042;SDS011;2540;50.928;6.856;2022-09-12T16:53:38;3.37;;;2.77;;
5042;SDS011;2540;50.928;6.856;2022-09-12T16:56:04;2.20;;;2.00;;
5042;SDS011;2540;50.928;6.856;2022-09-12T16:58:33;5.43;;;3.07;;
5042;SDS011;2540;50.928;6.856;2022-09-12T17:01:08;2.93;;;2.37;;
5042;SDS011;2540;50.928;6.856;2022-09-12T17:03:34;2.90;;;2.40;;
5042;SDS011;2540;50.928;6.856;2022-09-12T17:08:27;3.13;;;2.55;;
5042;SDS011;2540;50.928;6.856;2022-09-12T17:10:58;2.80;;;2.07;;
5042;SDS011;2540;50.928;6.856;2022-09-12T17:13:23;3.20;;;2.23;;
5042;SDS011;2540;50.928;6.856;2022-09-12T17:15:48;2.73;;;2.37;;
5042;SDS011;2540;50.928;6.856;2022-09-12T17:18:13;3.20;;;2.60;;
5042;SDS011;2540;50.928;6.856;2022-09-12T17:20:39;2.30;;;2.10;;
5042;SDS011;2540;50.928;6.856;2022-09-12T17:23:04;3.70;;;2.43;;
5042;SDS011;2540;50.928;6.856;2022-09-12T17:25:29;2.63;;;2.23;;
5042;SDS011;2540;50.928;6.856;2022-09-12T17:27:54;4.03;;;2.20;;
5042;SDS011;2540;50.928;6.856;2022-09-12T17:30:20;2.03;;;1.80;;
5042;SDS011;2540;50.928;6.856;2022-09-12T17:32:45;4.50;;;2.17;;
5042;SDS011;2540;50.928;6.856;2022-09-12T17:35:11;2.60;;;2.10;;